createdAt,value
2023-02-25T00:01:37.864Z,4.10
2023-02-25T00:04:04.514Z,5.47
2023-02-25T00:06:31.296Z,4.37
2023-02-25T00:08:57.953Z,4.20
2023-02-25T00:11:26.012Z,4.23
2023-02-25T00:13:52.983Z,3.90
2023-02-25T00:16:22.194Z,6.20
2023-02-25T00:18:56.522Z,4.10
2023-02-25T00:21:23.759Z,4.33
2023-02-25T00:23:51.522Z,3.30
2023-02-25T00:26:18.365Z,5.37
2023-02-25T00:28:46.154Z,3.70
2023-02-25T00:31:17.627Z,4.33
2023-02-25T00:33:44.736Z,3.23
2023-02-25T00:36:24.369Z,4.60
2023-02-25T00:38:53.110Z,3.17
2023-02-25T00:41:22.213Z,3.13
2023-02-25T00:43:51.481Z,3.53
2023-02-25T00:46:18.934Z,3.53
2023-02-25T00:48:46.082Z,3.80
2023-02-25T00:51:15.512Z,3.17
2023-02-25T00:53:44.185Z,3.50
2023-02-25T00:56:15.998Z,3.13
2023-02-25T00:58:47.602Z,3.70
2023-02-25T01:01:26.934Z,4.57
2023-02-25T01:03:56.474Z,4.80
2023-02-25T01:06:25.101Z,3.60
2023-02-25T01:08:52.125Z,3.70
2023-02-25T01:11:29.727Z,4.10
2023-02-25T01:13:58.820Z,5.17
2023-02-25T01:16:28.165Z,4.23
2023-02-25T01:18:57.427Z,4.10
2023-02-25T01:21:28.002Z,5.40
2023-02-25T01:23:58.571Z,5.60
2023-02-25T01:26:27.389Z,6.00
2023-02-25T01:28:55.703Z,4.80
2023-02-25T01:31:24.918Z,5.20
2023-02-25T01:33:51.743Z,5.97
2023-02-25T01:36:18.912Z,5.10
2023-02-25T01:38:45.602Z,5.70
2023-02-25T01:41:12.699Z,4.27
2023-02-25T01:43:40.631Z,4.70
2023-02-25T01:46:07.399Z,4.87
2023-02-25T01:48:37.510Z,5.97
2023-02-25T01:51:09.969Z,4.30
2023-02-25T01:53:46.599Z,4.10
2023-02-25T01:56:17.286Z,4.83
2023-02-25T01:58:44.670Z,5.80
2023-02-25T02:01:15.819Z,5.63
2023-02-25T02:03:43.900Z,5.70
2023-02-25T02:06:17.690Z,5.63
2023-02-25T02:08:45.613Z,6.73
2023-02-25T02:11:12.337Z,5.53
2023-02-25T02:13:43.089Z,6.03
2023-02-25T02:16:40.203Z,6.57
2023-02-25T02:19:15.060Z,5.20
2023-02-25T02:22:00.566Z,6.10
2023-02-25T02:24:52.576Z,6.23
2023-02-25T02:27:39.417Z,6.53
2023-02-25T02:30:28.934Z,5.90
2023-02-25T02:33:26.288Z,6.00
2023-02-25T02:36:07.152Z,4.93
2023-02-25T02:38:56.689Z,4.63
2023-02-25T02:41:41.590Z,4.80
2023-02-25T02:44:12.822Z,3.90
2023-02-25T02:46:55.052Z,3.70
2023-02-25T02:49:29.808Z,4.23
2023-02-25T02:52:19.342Z,3.47
2023-02-25T02:54:53.204Z,4.00
2023-02-25T02:57:22.312Z,3.43
2023-02-25T03:00:12.380Z,3.10
2023-02-25T03:02:43.108Z,3.10
2023-02-25T03:05:16.632Z,3.67
2023-02-25T03:07:51.479Z,4.23
2023-02-25T03:10:21.218Z,3.97
2023-02-25T03:12:48.449Z,4.03
2023-02-25T03:15:15.703Z,4.00
2023-02-25T03:17:51.285Z,3.57
2023-02-25T03:20:34.662Z,3.03
2023-02-25T03:23:07.345Z,4.47
2023-02-25T03:25:47.593Z,4.57
2023-02-25T03:28:29.744Z,3.90
2023-02-25T03:31:09.713Z,4.10
2023-02-25T03:33:57.949Z,4.60
2023-02-25T03:36:38.743Z,4.70
2023-02-25T03:39:11.143Z,3.60
2023-02-25T03:41:44.621Z,5.00
2023-02-25T03:44:16.773Z,4.60
2023-02-25T03:46:47.071Z,4.13
2023-02-25T03:49:25.542Z,4.50
2023-02-25T03:51:55.395Z,4.83
2023-02-25T03:54:22.282Z,4.00
2023-02-25T03:56:51.932Z,4.57
2023-02-25T03:59:20.166Z,4.53
2023-02-25T04:01:49.894Z,4.73
2023-02-25T04:04:16.562Z,6.07
2023-02-25T04:06:43.226Z,5.27
2023-02-25T04:09:09.907Z,5.80
2023-02-25T04:11:36.618Z,6.10
2023-02-25T04:14:03.288Z,5.40
2023-02-25T04:16:30.133Z,6.20
2023-02-25T04:18:59.153Z,6.20
2023-02-25T04:21:44.102Z,6.30
2023-02-25T04:24:10.877Z,5.90
2023-02-25T04:26:37.647Z,5.53
2023-02-25T04:29:04.359Z,4.80
2023-02-25T04:31:31.168Z,5.13
2023-02-25T04:33:58.184Z,6.17
2023-02-25T04:36:29.152Z,7.03
2023-02-25T04:38:56.740Z,6.68
2023-02-25T04:41:24.113Z,6.10
2023-02-25T04:43:50.999Z,4.70
2023-02-25T04:46:17.734Z,5.80
2023-02-25T04:48:44.782Z,5.97
2023-02-25T04:51:11.448Z,6.43
2023-02-25T04:53:38.126Z,6.90
2023-02-25T04:56:06.857Z,7.80
2023-02-25T04:58:35.114Z,6.90
2023-02-25T05:01:03.435Z,6.50
2023-02-25T05:03:30.376Z,7.00
2023-02-25T05:05:57.310Z,6.07
2023-02-25T05:08:24.462Z,6.00
2023-02-25T05:10:51.471Z,6.40
2023-02-25T05:13:19.526Z,8.00
2023-02-25T05:15:46.570Z,7.10
2023-02-25T05:18:13.486Z,7.73
2023-02-25T05:20:42.073Z,6.23
2023-02-25T05:23:09.572Z,4.17
2023-02-25T05:25:41.155Z,4.97
2023-02-25T05:28:09.199Z,4.73
2023-02-25T05:30:38.724Z,4.87
2023-02-25T05:33:06.524Z,5.00
2023-02-25T05:35:33.600Z,4.30
2023-02-25T05:38:00.675Z,4.10
2023-02-25T05:40:27.751Z,3.43
2023-02-25T05:42:54.452Z,3.17
2023-02-25T05:45:21.312Z,4.13
2023-02-25T05:47:48.001Z,3.90
2023-02-25T05:50:14.734Z,3.60
2023-02-25T05:52:41.964Z,5.13
2023-02-25T05:55:09.385Z,4.10
2023-02-25T05:57:36.101Z,3.50
2023-02-25T06:00:05.773Z,5.00
2023-02-25T06:02:39.099Z,4.90
2023-02-25T06:05:06.544Z,3.87
2023-02-25T06:07:33.565Z,4.60
2023-02-25T06:10:00.880Z,4.00
2023-02-25T06:12:33.273Z,5.03
2023-02-25T06:15:00.606Z,5.80
2023-02-25T06:17:27.365Z,4.83
2023-02-25T06:19:54.421Z,5.23
2023-02-25T06:22:22.400Z,4.53
2023-02-25T06:24:49.149Z,6.17
2023-02-25T06:27:16.387Z,6.60
2023-02-25T06:29:43.060Z,5.40
2023-02-25T06:32:11.414Z,5.30
2023-02-25T06:34:38.893Z,4.40
2023-02-25T06:37:06.272Z,4.50
2023-02-25T06:39:33.280Z,3.83
2023-02-25T06:42:00.263Z,3.43
2023-02-25T06:44:29.023Z,5.10
2023-02-25T06:46:56.015Z,6.93
2023-02-25T06:49:23.526Z,6.00
2023-02-25T06:51:50.400Z,3.80
2023-02-25T06:54:18.100Z,5.00
2023-02-25T06:56:45.245Z,6.03
2023-02-25T06:59:11.985Z,3.97
2023-02-25T07:01:39.216Z,4.27
2023-02-25T07:04:05.966Z,4.73
2023-02-25T07:06:32.765Z,5.67
2023-02-25T07:08:59.419Z,4.80
2023-02-25T07:11:26.894Z,4.77
2023-02-25T07:13:53.526Z,5.10
2023-02-25T07:16:20.875Z,3.73
2023-02-25T07:18:48.373Z,5.50
2023-02-25T07:21:16.067Z,4.60
2023-02-25T07:23:43.521Z,4.73
2023-02-25T07:26:13.112Z,5.23
2023-02-25T07:28:39.881Z,4.70
2023-02-25T07:31:18.697Z,5.80
2023-02-25T07:33:46.760Z,4.60
2023-02-25T07:36:13.979Z,4.20
2023-02-25T07:38:40.757Z,4.10
2023-02-25T07:41:09.343Z,4.40
2023-02-25T07:43:36.483Z,4.00
2023-02-25T07:46:03.507Z,4.43
2023-02-25T07:48:30.218Z,4.90
2023-02-25T07:51:03.623Z,4.20
2023-02-25T07:53:30.350Z,4.27
2023-02-25T07:55:56.998Z,4.17
2023-02-25T07:58:24.091Z,3.60
2023-02-25T08:00:50.731Z,3.57
2023-02-25T08:03:17.388Z,3.50
2023-02-25T08:05:44.041Z,3.70
2023-02-25T08:08:10.773Z,3.60
2023-02-25T08:10:37.525Z,3.80
2023-02-25T08:13:04.164Z,5.37
2023-02-25T08:15:30.798Z,3.47
2023-02-25T08:17:57.482Z,4.53
2023-02-25T08:20:24.309Z,4.33
2023-02-25T08:22:51.657Z,3.40
2023-02-25T08:25:18.406Z,3.00
2023-02-25T08:27:45.113Z,3.83
2023-02-25T08:30:12.595Z,3.43
2023-02-25T08:32:39.591Z,4.70
2023-02-25T08:35:06.573Z,4.33
2023-02-25T08:37:33.492Z,5.20
2023-02-25T08:40:00.207Z,5.90
2023-02-25T08:42:27.189Z,5.03
2023-02-25T08:44:53.812Z,5.37
2023-02-25T08:47:20.532Z,4.87
2023-02-25T08:49:47.559Z,4.40
2023-02-25T08:52:14.550Z,5.30
2023-02-25T08:54:41.421Z,5.33
2023-02-25T08:57:08.308Z,5.70
2023-02-25T08:59:37.709Z,5.20
2023-02-25T09:02:08.646Z,7.13
2023-02-25T09:04:35.477Z,7.17
2023-02-25T09:07:03.095Z,7.73
2023-02-25T09:09:29.954Z,7.70
2023-02-25T09:11:56.697Z,8.87
2023-02-25T09:14:23.421Z,9.33
2023-02-25T09:16:50.676Z,8.10
2023-02-25T09:19:18.308Z,8.50
2023-02-25T09:21:48.022Z,9.50
2023-02-25T09:24:15.169Z,10.37
2023-02-25T09:26:42.137Z,10.30
2023-02-25T09:29:08.837Z,10.70
2023-02-25T09:31:37.425Z,8.67
2023-02-25T09:34:07.350Z,12.13
2023-02-25T09:36:34.768Z,12.80
2023-02-25T09:39:02.414Z,11.70
2023-02-25T09:41:29.058Z,12.77
2023-02-25T09:44:05.715Z,12.60
2023-02-25T09:46:35.138Z,11.90
2023-02-25T09:49:23.395Z,12.53
2023-02-25T09:51:58.292Z,11.63
2023-02-25T09:54:34.509Z,10.57
2023-02-25T09:57:03.003Z,9.90
2023-02-25T09:59:30.598Z,8.73
2023-02-25T10:02:20.202Z,8.27
2023-02-25T10:05:11.849Z,7.90
2023-02-25T10:08:12.130Z,8.67
2023-02-25T10:10:47.183Z,9.90
2023-02-25T10:13:36.705Z,7.87
2023-02-25T10:16:31.043Z,7.07
2023-02-25T10:19:01.484Z,8.27
2023-02-25T10:21:54.818Z,6.27
2023-02-25T10:24:21.451Z,6.67
2023-02-25T10:26:55.925Z,7.17
2023-02-25T10:29:36.504Z,6.70
2023-02-25T10:32:17.239Z,6.70
2023-02-25T10:34:44.123Z,7.10
2023-02-25T10:37:26.956Z,5.60
2023-02-25T10:39:57.554Z,4.33
2023-02-25T10:42:24.338Z,4.83
2023-02-25T10:44:51.259Z,5.60
2023-02-25T10:47:39.919Z,6.07
2023-02-25T10:50:42.904Z,6.53
2023-02-25T10:53:18.661Z,6.57
2023-02-25T10:55:51.561Z,5.00
2023-02-25T10:58:44.207Z,4.47
2023-02-25T11:01:22.412Z,4.37
2023-02-25T11:03:59.696Z,3.40
2023-02-25T11:06:29.964Z,4.30
2023-02-25T11:08:59.248Z,5.10
2023-02-25T11:11:31.010Z,4.10
2023-02-25T11:14:14.878Z,3.87
2023-02-25T11:16:44.577Z,4.00
2023-02-25T11:19:22.730Z,3.70
2023-02-25T11:21:50.294Z,4.73
2023-02-25T11:24:33.330Z,4.33
2023-02-25T11:27:02.095Z,3.90
2023-02-25T11:29:38.210Z,3.80
2023-02-25T11:32:18.580Z,4.33
2023-02-25T11:34:50.356Z,4.10
2023-02-25T11:37:45.608Z,4.20
2023-02-25T11:40:34.059Z,3.80
2023-02-25T11:43:07.085Z,3.90
2023-02-25T11:45:37.697Z,4.10
2023-02-25T11:48:16.569Z,5.07
2023-02-25T11:50:59.953Z,2.30
2023-02-25T11:53:52.049Z,2.13
2023-02-25T11:56:30.870Z,3.00
2023-02-25T11:59:30.266Z,2.23
2023-02-25T12:02:14.849Z,2.27
2023-02-25T12:05:03.197Z,1.93
2023-02-25T12:08:12.049Z,1.73
2023-02-25T12:10:48.736Z,1.63
2023-02-25T12:13:34.415Z,1.60
2023-02-25T12:16:43.931Z,3.00
2023-02-25T12:19:44.766Z,2.33
2023-02-25T12:22:29.919Z,1.50
2023-02-25T12:25:13.909Z,1.17
2023-02-25T12:28:01.891Z,1.60
2023-02-25T12:30:47.382Z,1.23
2023-02-25T12:33:23.319Z,1.90
2023-02-25T12:36:09.141Z,1.80
2023-02-25T12:39:09.636Z,1.20
2023-02-25T12:42:07.708Z,1.90
2023-02-25T12:44:59.782Z,1.77
2023-02-25T12:47:59.982Z,2.03
2023-02-25T12:50:34.483Z,2.83
2023-02-25T12:53:26.335Z,1.63
2023-02-25T12:56:05.407Z,2.10
2023-02-25T12:58:33.475Z,2.60
2023-02-25T13:01:12.864Z,2.83
2023-02-25T13:03:53.400Z,3.47
2023-02-25T13:06:33.582Z,1.30
2023-02-25T13:09:15.616Z,2.57
2023-02-25T13:12:10.512Z,2.20
2023-02-25T13:14:56.198Z,1.50
2023-02-25T13:17:54.901Z,1.70
2023-02-25T13:20:42.737Z,1.83
2023-02-25T13:23:35.712Z,1.23
2023-02-25T13:26:27.378Z,1.60
2023-02-25T13:29:26.315Z,2.60
2023-02-25T13:32:27.155Z,2.10
2023-02-25T13:35:19.159Z,1.77
2023-02-25T13:38:02.021Z,1.67
2023-02-25T13:41:07.111Z,3.10
2023-02-25T13:43:59.286Z,1.97
2023-02-25T13:46:44.046Z,2.17
2023-02-25T13:49:35.569Z,1.90
2023-02-25T13:52:17.351Z,1.63
2023-02-25T13:55:05.748Z,1.30
2023-02-25T13:57:41.852Z,1.90
2023-02-25T14:00:30.449Z,1.10
2023-02-25T14:03:31.150Z,1.80
2023-02-25T14:06:16.249Z,1.70
2023-02-25T14:09:06.751Z,1.80
2023-02-25T14:11:57.795Z,1.97
2023-02-25T14:14:50.194Z,0.83
2023-02-25T14:17:32.160Z,1.63
2023-02-25T14:20:18.435Z,1.77
2023-02-25T14:23:04.248Z,2.40
2023-02-25T14:25:48.318Z,2.00
2023-02-25T14:28:41.853Z,2.33
2023-02-25T14:31:17.821Z,1.73
2023-02-25T14:34:26.164Z,2.07
2023-02-25T14:37:20.630Z,2.20
2023-02-25T14:40:21.683Z,2.03
2023-02-25T14:43:12.097Z,2.30
2023-02-25T14:45:41.856Z,1.47
2023-02-25T14:48:27.782Z,1.60
2023-02-25T14:51:07.620Z,2.13
2023-02-25T14:53:46.389Z,1.30
2023-02-25T14:56:25.926Z,0.90
2023-02-25T14:59:11.206Z,0.90
2023-02-25T15:01:54.183Z,1.30
2023-02-25T15:04:55.433Z,1.73
2023-02-25T15:08:01.303Z,0.70
2023-02-25T15:10:59.866Z,1.23
2023-02-25T15:14:04.076Z,1.80
2023-02-25T15:16:43.250Z,2.37
2023-02-25T15:19:28.660Z,0.80
2023-02-25T15:22:13.670Z,0.77
2023-02-25T15:24:41.755Z,0.83
2023-02-25T15:27:36.208Z,0.80
2023-02-25T15:30:11.147Z,0.50
2023-02-25T15:32:53.029Z,0.60
2023-02-25T15:35:43.118Z,0.80
2023-02-25T15:38:20.269Z,0.50
2023-02-25T15:40:49.140Z,0.50
2023-02-25T15:43:16.414Z,0.90
2023-02-25T15:45:47.947Z,1.13
2023-02-25T15:48:17.074Z,1.33
2023-02-25T15:50:43.683Z,0.40
2023-02-25T15:53:25.522Z,0.90
2023-02-25T15:55:53.108Z,0.60
2023-02-25T15:58:25.781Z,0.60
2023-02-25T16:00:56.532Z,0.67
2023-02-25T16:03:32.766Z,0.90
2023-02-25T16:06:21.904Z,0.73
2023-02-25T16:09:00.888Z,0.77
2023-02-25T16:11:44.482Z,0.80
2023-02-25T16:14:30.678Z,0.80
2023-02-25T16:17:16.684Z,1.10
2023-02-25T16:19:46.728Z,0.90
2023-02-25T16:22:21.671Z,1.50
2023-02-25T16:24:56.853Z,1.10
2023-02-25T16:27:43.242Z,1.20
2023-02-25T16:30:22.537Z,1.00
2023-02-25T16:33:01.810Z,0.80
2023-02-25T16:35:36.478Z,1.53
2023-02-25T16:38:45.440Z,0.73
2023-02-25T16:41:13.354Z,2.10
2023-02-25T16:43:42.765Z,1.40
2023-02-25T16:46:20.826Z,1.83
2023-02-25T16:48:55.565Z,1.83
2023-02-25T16:51:26.874Z,2.93
2023-02-25T16:53:57.839Z,2.23
2023-02-25T16:56:30.417Z,2.70
2023-02-25T16:59:05.720Z,0.70
2023-02-25T17:01:35.183Z,1.10
2023-02-25T17:04:16.005Z,1.30
2023-02-25T17:06:43.206Z,1.60
2023-02-25T17:09:23.359Z,1.47
2023-02-25T17:11:55.445Z,1.15
2023-02-25T17:14:23.565Z,2.53
2023-02-25T17:16:50.953Z,4.13
2023-02-25T17:19:23.034Z,2.80
2023-02-25T17:21:58.575Z,1.70
2023-02-25T17:24:30.953Z,3.70
2023-02-25T17:26:58.401Z,2.20
2023-02-25T17:29:35.005Z,2.50
2023-02-25T17:32:23.118Z,4.70
2023-02-25T17:34:53.175Z,7.13
2023-02-25T17:37:21.610Z,3.53
2023-02-25T17:39:49.282Z,4.20
2023-02-25T17:42:32.747Z,5.60
2023-02-25T17:45:00.967Z,5.00
2023-02-25T17:47:30.957Z,3.15
2023-02-25T17:49:59.781Z,3.33
2023-02-25T17:52:31.070Z,4.10
2023-02-25T17:55:05.220Z,1.80
2023-02-25T17:57:33.859Z,2.17
2023-02-25T18:00:13.970Z,1.90
2023-02-25T18:02:44.014Z,3.63
2023-02-25T18:05:13.732Z,3.53
2023-02-25T18:08:04.727Z,5.43
2023-02-25T18:10:31.626Z,3.27
2023-02-25T18:13:01.702Z,4.95
2023-02-25T18:15:31.407Z,3.53
2023-02-25T18:18:01.386Z,2.33
2023-02-25T18:20:35.214Z,3.77
2023-02-25T18:23:30.934Z,2.00
2023-02-25T18:26:18.516Z,1.65
2023-02-25T18:28:45.992Z,1.80
2023-02-25T18:31:19.145Z,1.30
2023-02-25T18:33:47.551Z,3.00
2023-02-25T18:36:33.334Z,1.80
2023-02-25T18:39:04.330Z,4.53
2023-02-25T18:41:30.998Z,6.63
2023-02-25T18:43:57.636Z,6.10
2023-02-25T18:46:24.660Z,3.25
2023-02-25T18:48:51.569Z,6.70
2023-02-25T18:51:18.305Z,6.38
2023-02-25T18:53:44.967Z,5.47
2023-02-25T18:56:17.732Z,4.65
2023-02-25T18:58:45.270Z,4.50
2023-02-25T19:01:26.397Z,2.20
2023-02-25T19:03:59.119Z,4.45
2023-02-25T19:06:29.129Z,3.10
2023-02-25T19:08:55.942Z,1.90
2023-02-25T19:11:25.933Z,1.50
2023-02-25T19:13:53.262Z,3.30
2023-02-25T19:16:20.442Z,3.95
2023-02-25T19:18:47.305Z,1.40
2023-02-25T19:21:17.640Z,2.00
2023-02-25T19:23:45.243Z,3.17
2023-02-25T19:26:13.057Z,1.95
2023-02-25T19:28:40.539Z,3.30
2023-02-25T19:31:08.932Z,3.42
2023-02-25T19:33:36.072Z,2.80
2023-02-25T19:36:04.051Z,1.90
2023-02-25T19:38:30.830Z,3.75
2023-02-25T19:41:02.444Z,1.50
2023-02-25T19:43:30.589Z,2.15
2023-02-25T19:45:57.314Z,2.78
2023-02-25T19:48:24.722Z,2.80
2023-02-25T19:50:51.794Z,1.65
2023-02-25T19:53:19.051Z,1.90
2023-02-25T19:55:45.760Z,1.40
2023-02-25T19:58:12.398Z,2.47
2023-02-25T20:00:45.511Z,2.17
2023-02-25T20:03:13.352Z,2.50
2023-02-25T20:05:40.320Z,2.55
2023-02-25T20:08:07.342Z,2.85
2023-02-25T20:10:34.061Z,3.13
2023-02-25T20:13:00.726Z,2.90
2023-02-25T20:15:27.524Z,3.15
2023-02-25T20:17:55.578Z,1.90
2023-02-25T20:20:23.727Z,3.28
2023-02-25T20:22:50.474Z,5.65
2023-02-25T20:25:17.212Z,6.30
2023-02-25T20:27:43.928Z,5.75
2023-02-25T20:30:14.381Z,9.35
2023-02-25T20:32:42.734Z,8.75
2023-02-25T20:35:16.660Z,6.43
2023-02-25T20:37:51.462Z,5.85
2023-02-25T20:40:18.964Z,7.85
2023-02-25T20:42:45.777Z,6.57
2023-02-25T20:45:15.658Z,12.85
2023-02-25T20:47:43.124Z,14.15
2023-02-25T20:50:10.388Z,10.90
2023-02-25T20:52:37.133Z,5.90
2023-02-25T20:55:05.962Z,8.15
2023-02-25T20:57:33.850Z,6.85
2023-02-25T21:00:00.503Z,6.40
2023-02-25T21:02:27.272Z,5.40
2023-02-25T21:04:53.912Z,5.25
2023-02-25T21:07:20.587Z,3.50
2023-02-25T21:09:47.308Z,4.60
2023-02-25T21:12:14.178Z,3.95
2023-02-25T21:14:40.876Z,3.63
2023-02-25T21:17:09.465Z,3.60
2023-02-25T21:19:38.426Z,3.72
2023-02-25T21:22:06.383Z,4.10
2023-02-25T21:24:33.591Z,3.78
2023-02-25T21:27:01.329Z,4.25
2023-02-25T21:29:28.124Z,3.80
2023-02-25T21:31:54.848Z,3.60
2023-02-25T21:34:21.513Z,4.25
2023-02-25T21:36:48.308Z,3.35
2023-02-25T21:39:15.082Z,3.35
2023-02-25T21:41:44.063Z,4.72
2023-02-25T21:44:12.162Z,4.57
2023-02-25T21:46:39.008Z,3.72
2023-02-25T21:49:05.738Z,4.00
2023-02-25T21:51:32.511Z,2.20
2023-02-25T21:54:00.895Z,1.80
2023-02-25T21:56:29.134Z,2.10
2023-02-25T21:58:57.773Z,1.85
2023-02-25T22:01:33.456Z,1.98
2023-02-25T22:04:00.362Z,2.20
2023-02-25T22:06:28.280Z,3.20
2023-02-25T22:08:55.910Z,2.47
2023-02-25T22:11:26.861Z,2.20
2023-02-25T22:13:53.938Z,1.92
2023-02-25T22:16:23.053Z,2.10
2023-02-25T22:18:51.275Z,2.30
2023-02-25T22:21:21.219Z,2.30
2023-02-25T22:23:49.402Z,3.90
2023-02-25T22:26:19.244Z,3.38
2023-02-25T22:28:46.450Z,4.32
2023-02-25T22:31:16.084Z,4.72
2023-02-25T22:33:43.654Z,4.97
2023-02-25T22:36:11.835Z,2.35
2023-02-25T22:38:40.864Z,2.97
2023-02-25T22:41:20.539Z,3.20
2023-02-25T22:43:48.300Z,3.10
2023-02-25T22:46:20.958Z,3.67
2023-02-25T22:48:49.304Z,3.47
2023-02-25T22:51:26.594Z,4.38
2023-02-25T22:53:53.728Z,3.10
2023-02-25T22:56:21.606Z,2.83
2023-02-25T22:58:48.847Z,4.47
2023-02-25T23:01:19.134Z,5.57
2023-02-25T23:03:46.393Z,7.00
2023-02-25T23:06:15.813Z,8.82
2023-02-25T23:08:43.477Z,9.75
2023-02-25T23:11:19.067Z,5.25
2023-02-25T23:13:48.164Z,4.85
2023-02-25T23:16:16.870Z,4.40
2023-02-25T23:18:44.031Z,4.95
2023-02-25T23:21:16.151Z,9.05
2023-02-25T23:23:43.771Z,6.45
2023-02-25T23:26:13.743Z,5.88
2023-02-25T23:28:41.042Z,4.95
2023-02-25T23:31:08.277Z,4.90
2023-02-25T23:33:34.987Z,6.78
2023-02-25T23:36:05.267Z,5.43
2023-02-25T23:38:31.940Z,4.45
2023-02-25T23:40:59.654Z,5.72
2023-02-25T23:43:26.483Z,4.00
2023-02-25T23:45:53.110Z,4.53
2023-02-25T23:48:19.805Z,4.90
2023-02-25T23:50:46.560Z,5.63
2023-02-25T23:53:13.380Z,3.70
2023-02-25T23:55:40.320Z,3.70
2023-02-25T23:58:07.030Z,4.07
